メキシコシティ の空港の天気 - METARとTAF

メキシコ・シティ国際空港 ( MMMX / MEX ) - メキシコ メキシコシティ
飛行場実況気象(Metar)
観測時間08/04 17:45 CDT (08/04 22:45 UTC)
風向・風速北 4m/s
視程10km以上
天気現象周辺で雨
全天の4割程度の雲 雲底高度 610m
全天の8割程度の雲 雲底高度 2440m
全天の8割程度の雲 雲底高度 6100m
気温24℃
湿度41%
気圧1025hPa
METARMMMX 042245Z 35008KT 8SM VCRA SCT020CB BKN080 BKN200 24/10 A3028 TEMPO 4SM TSRA RMK 8/963 HZY PCPN N W
過去の天気等 Google飛行場航空写真 Wunderground天気予報

過去48時間のMETAR

飛行場予報(TAF)
発表時間: 8/04 11:42 CDT (8/04 16:42 UTC)
予報対象時間: 4日13時 CDT ~ 5日19時 CDT
風向・風速南東 5m/s
視程10km以上
天気現象煙霧
全天の8割程度の雲 雲底高度 610m
全天の8割程度の雲 雲底高度 2740m
4日16時 CDT から
風向・風速南東 6m/s
視程10km以上
天気現象煙霧
全天の8割程度の積乱雲 雲底高度 610m
4日17時 CDT ~ 4日21時 CDT に一時的に
視程6440m
天気現象雷雨
全天を覆う積乱雲 雲底高度 610m
4日21時 CDT から
風向・風速南東 3m/s
視程10km以上
天気現象煙霧
全天の8割程度の積乱雲 雲底高度 610m
全天の8割程度の雲 雲底高度 2440m
全天の8割程度の雲 雲底高度 6100m
4日21時 CDT ~ 5日1時 CDT に一時的に
視程8050m
天気現象
5日1時 CDT から
風向・風速南東 3m/s
視程10km以上
天気現象煙霧
全天の4割程度の雲 雲底高度 610m
全天の8割程度の雲 雲底高度 2440m
全天の8割程度の雲 雲底高度 6100m
5日7時 CDT ~ 5日11時 CDT に一時的に
視程4830m
天気現象煙霧
全天の8割程度の雲 雲底高度 610m
TAF MMMX 041642Z 0418/0524 13010KT 6SM HZ BKN020 BKN090 TX23/0421Z TN15/0512Z
FM042100 13012KT 6SM HZ BKN020CB
TEMPO 0422/0502 4SM TSRA OVC020CB
FM050200 13005KT 6SM HZ BKN020CB BKN080 BKN200
TEMPO 0502/0506 5SM RA
FM050600 13005KT 6SM HZ SCT020 BKN080 BKN200
TEMPO 0512/0516 3SM HZ BKN020